sensor_id;sensor_type;location;lat;lon;timestamp;P1;durP1;ratioP1;P2;durP2;ratioP2
20486;SDS011;10402;49.012;8.370;2023-06-14T00:01:43;739.97;;;703.63;;
20486;SDS011;10402;49.012;8.370;2023-06-14T00:04:10;748.47;;;711.27;;
20486;SDS011;10402;49.012;8.370;2023-06-14T00:06:36;759.20;;;721.17;;
20486;SDS011;10402;49.012;8.370;2023-06-14T00:09:03;746.97;;;710.93;;
20486;SDS011;10402;49.012;8.370;2023-06-14T00:11:29;743.53;;;706.90;;
20486;SDS011;10402;49.012;8.370;2023-06-14T00:13:55;733.80;;;698.00;;
20486;SDS011;10402;49.012;8.370;2023-06-14T00:16:21;741.67;;;704.60;;
20486;SDS011;10402;49.012;8.370;2023-06-14T00:18:47;750.43;;;713.33;;
20486;SDS011;10402;49.012;8.370;2023-06-14T00:21:13;755.23;;;718.37;;
20486;SDS011;10402;49.012;8.370;2023-06-14T00:23:39;753.53;;;716.10;;
20486;SDS011;10402;49.012;8.370;2023-06-14T00:26:05;758.47;;;721.67;;
20486;SDS011;10402;49.012;8.370;2023-06-14T00:28:30;734.77;;;699.70;;
20486;SDS011;10402;49.012;8.370;2023-06-14T00:30:56;755.57;;;719.07;;
20486;SDS011;10402;49.012;8.370;2023-06-14T00:33:21;756.77;;;720.47;;
20486;SDS011;10402;49.012;8.370;2023-06-14T00:35:47;752.23;;;715.97;;
20486;SDS011;10402;49.012;8.370;2023-06-14T00:38:13;744.67;;;709.03;;
20486;SDS011;10402;49.012;8.370;2023-06-14T00:40:38;738.70;;;702.97;;
20486;SDS011;10402;49.012;8.370;2023-06-14T00:43:04;735.77;;;700.27;;
20486;SDS011;10402;49.012;8.370;2023-06-14T00:45:30;752.23;;;715.00;;
20486;SDS011;10402;49.012;8.370;2023-06-14T00:48:00;722.13;;;687.47;;
20486;SDS011;10402;49.012;8.370;2023-06-14T00:50:27;717.73;;;682.70;;
20486;SDS011;10402;49.012;8.370;2023-06-14T00:52:54;696.13;;;662.60;;
20486;SDS011;10402;49.012;8.370;2023-06-14T00:55:20;712.47;;;676.77;;
20486;SDS011;10402;49.012;8.370;2023-06-14T00:57:46;688.00;;;653.80;;
20486;SDS011;10402;49.012;8.370;2023-06-14T01:00:13;693.93;;;659.10;;
20486;SDS011;10402;49.012;8.370;2023-06-14T01:02:40;668.33;;;635.70;;
20486;SDS011;10402;49.012;8.370;2023-06-14T01:05:06;664.63;;;632.60;;
20486;SDS011;10402;49.012;8.370;2023-06-14T01:07:40;664.10;;;631.93;;
20486;SDS011;10402;49.012;8.370;2023-06-14T01:10:12;645.27;;;614.67;;
20486;SDS011;10402;49.012;8.370;2023-06-14T01:15:38;648.80;;;618.00;;
20486;SDS011;10402;49.012;8.370;2023-06-14T01:18:05;647.47;;;616.73;;
20486;SDS011;10402;49.012;8.370;2023-06-14T01:20:32;637.80;;;607.53;;
20486;SDS011;10402;49.012;8.370;2023-06-14T01:23:01;651.37;;;619.97;;
20486;SDS011;10402;49.012;8.370;2023-06-14T01:25:27;651.20;;;619.87;;
20486;SDS011;10402;49.012;8.370;2023-06-14T01:27:54;652.53;;;620.77;;
20486;SDS011;10402;49.012;8.370;2023-06-14T01:30:23;660.77;;;628.77;;
20486;SDS011;10402;49.012;8.370;2023-06-14T01:32:50;656.80;;;625.33;;
20486;SDS011;10402;49.012;8.370;2023-06-14T01:35:18;659.57;;;627.90;;
20486;SDS011;10402;49.012;8.370;2023-06-14T01:37:44;664.27;;;631.77;;
20486;SDS011;10402;49.012;8.370;2023-06-14T01:40:13;644.50;;;614.30;;
20486;SDS011;10402;49.012;8.370;2023-06-14T01:42:40;643.77;;;613.63;;
20486;SDS011;10402;49.012;8.370;2023-06-14T01:45:07;635.97;;;606.40;;
20486;SDS011;10402;49.012;8.370;2023-06-14T01:47:35;635.97;;;606.40;;
20486;SDS011;10402;49.012;8.370;2023-06-14T01:50:04;641.80;;;612.13;;
20486;SDS011;10402;49.012;8.370;2023-06-14T01:52:30;633.50;;;603.87;;
20486;SDS011;10402;49.012;8.370;2023-06-14T01:54:56;640.67;;;611.07;;
20486;SDS011;10402;49.012;8.370;2023-06-14T01:57:23;632.23;;;602.90;;
20486;SDS011;10402;49.012;8.370;2023-06-14T01:59:50;624.57;;;595.80;;
20486;SDS011;10402;49.012;8.370;2023-06-14T02:02:15;632.97;;;603.87;;
20486;SDS011;10402;49.012;8.370;2023-06-14T02:04:41;651.77;;;621.40;;
20486;SDS011;10402;49.012;8.370;2023-06-14T02:07:07;636.53;;;606.73;;
20486;SDS011;10402;49.012;8.370;2023-06-14T02:09:33;631.27;;;601.93;;
20486;SDS011;10402;49.012;8.370;2023-06-14T02:11:59;634.90;;;605.27;;
20486;SDS011;10402;49.012;8.370;2023-06-14T02:14:25;621.70;;;592.63;;
20486;SDS011;10402;49.012;8.370;2023-06-14T02:16:51;626.90;;;598.07;;
20486;SDS011;10402;49.012;8.370;2023-06-14T02:19:18;627.97;;;599.27;;
20486;SDS011;10402;49.012;8.370;2023-06-14T02:21:44;616.40;;;588.70;;
20486;SDS011;10402;49.012;8.370;2023-06-14T02:24:10;636.07;;;607.13;;
20486;SDS011;10402;49.012;8.370;2023-06-14T02:26:36;642.83;;;614.10;;
20486;SDS011;10402;49.012;8.370;2023-06-14T02:29:08;632.70;;;603.63;;
20486;SDS011;10402;49.012;8.370;2023-06-14T02:31:35;635.87;;;607.47;;
20486;SDS011;10402;49.012;8.370;2023-06-14T02:34:01;630.33;;;601.73;;
20486;SDS011;10402;49.012;8.370;2023-06-14T02:36:27;633.53;;;604.77;;
20486;SDS011;10402;49.012;8.370;2023-06-14T02:38:55;633.23;;;604.30;;
20486;SDS011;10402;49.012;8.370;2023-06-14T02:41:22;623.90;;;595.97;;
20486;SDS011;10402;49.012;8.370;2023-06-14T02:43:48;619.83;;;591.40;;
20486;SDS011;10402;49.012;8.370;2023-06-14T02:46:14;617.20;;;589.10;;
20486;SDS011;10402;49.012;8.370;2023-06-14T02:48:40;644.40;;;614.60;;
20486;SDS011;10402;49.012;8.370;2023-06-14T02:51:05;623.30;;;594.67;;
20486;SDS011;10402;49.012;8.370;2023-06-14T02:53:33;619.10;;;590.53;;
20486;SDS011;10402;49.012;8.370;2023-06-14T02:55:59;609.67;;;581.90;;
20486;SDS011;10402;49.012;8.370;2023-06-14T02:58:24;611.10;;;583.73;;
20486;SDS011;10402;49.012;8.370;2023-06-14T03:00:50;601.73;;;574.93;;
20486;SDS011;10402;49.012;8.370;2023-06-14T03:03:17;605.73;;;578.60;;
20486;SDS011;10402;49.012;8.370;2023-06-14T03:05:44;622.10;;;593.80;;
20486;SDS011;10402;49.012;8.370;2023-06-14T03:08:12;602.40;;;575.07;;
20486;SDS011;10402;49.012;8.370;2023-06-14T03:10:45;593.53;;;566.97;;
20486;SDS011;10402;49.012;8.370;2023-06-14T03:13:12;597.37;;;570.77;;
20486;SDS011;10402;49.012;8.370;2023-06-14T03:15:38;606.20;;;579.20;;
20486;SDS011;10402;49.012;8.370;2023-06-14T03:18:06;583.80;;;558.33;;
20486;SDS011;10402;49.012;8.370;2023-06-14T03:20:36;565.03;;;540.43;;
20486;SDS011;10402;49.012;8.370;2023-06-14T03:23:02;562.97;;;538.73;;
20486;SDS011;10402;49.012;8.370;2023-06-14T03:25:29;566.07;;;541.57;;
20486;SDS011;10402;49.012;8.370;2023-06-14T03:27:55;585.27;;;559.90;;
20486;SDS011;10402;49.012;8.370;2023-06-14T03:30:21;578.47;;;553.33;;
20486;SDS011;10402;49.012;8.370;2023-06-14T03:32:47;592.37;;;566.50;;
20486;SDS011;10402;49.012;8.370;2023-06-14T03:35:12;595.07;;;569.10;;
20486;SDS011;10402;49.012;8.370;2023-06-14T03:37:42;580.53;;;555.10;;
20486;SDS011;10402;49.012;8.370;2023-06-14T03:40:09;613.97;;;586.93;;
20486;SDS011;10402;49.012;8.370;2023-06-14T03:42:35;623.83;;;596.47;;
20486;SDS011;10402;49.012;8.370;2023-06-14T03:45:00;610.93;;;583.70;;
20486;SDS011;10402;49.012;8.370;2023-06-14T03:47:26;623.60;;;596.17;;
20486;SDS011;10402;49.012;8.370;2023-06-14T03:49:52;620.07;;;592.57;;
20486;SDS011;10402;49.012;8.370;2023-06-14T03:52:18;624.27;;;596.57;;
20486;SDS011;10402;49.012;8.370;2023-06-14T03:54:43;623.40;;;595.70;;
20486;SDS011;10402;49.012;8.370;2023-06-14T03:57:09;619.50;;;592.10;;
20486;SDS011;10402;49.012;8.370;2023-06-14T03:59:35;640.00;;;611.47;;
20486;SDS011;10402;49.012;8.370;2023-06-14T04:02:01;632.20;;;604.57;;
20486;SDS011;10402;49.012;8.370;2023-06-14T04:04:27;625.63;;;598.60;;
20486;SDS011;10402;49.012;8.370;2023-06-14T04:06:54;627.63;;;600.20;;
20486;SDS011;10402;49.012;8.370;2023-06-14T04:09:21;632.07;;;604.30;;
20486;SDS011;10402;49.012;8.370;2023-06-14T04:11:49;612.93;;;586.83;;
20486;SDS011;10402;49.012;8.370;2023-06-14T04:14:18;615.63;;;588.80;;
20486;SDS011;10402;49.012;8.370;2023-06-14T04:16:45;625.67;;;598.57;;
20486;SDS011;10402;49.012;8.370;2023-06-14T04:19:11;622.47;;;595.23;;
20486;SDS011;10402;49.012;8.370;2023-06-14T04:21:37;630.60;;;602.83;;
20486;SDS011;10402;49.012;8.370;2023-06-14T04:24:02;642.53;;;614.33;;
20486;SDS011;10402;49.012;8.370;2023-06-14T04:26:28;641.50;;;612.57;;
20486;SDS011;10402;49.012;8.370;2023-06-14T04:28:55;628.60;;;600.90;;
20486;SDS011;10402;49.012;8.370;2023-06-14T04:31:22;619.47;;;591.90;;
20486;SDS011;10402;49.012;8.370;2023-06-14T04:33:50;620.93;;;593.33;;
20486;SDS011;10402;49.012;8.370;2023-06-14T04:36:17;612.90;;;585.63;;
20486;SDS011;10402;49.012;8.370;2023-06-14T04:38:43;606.13;;;579.20;;
20486;SDS011;10402;49.012;8.370;2023-06-14T04:41:11;617.60;;;589.90;;
20486;SDS011;10402;49.012;8.370;2023-06-14T04:43:37;591.80;;;565.50;;
20486;SDS011;10402;49.012;8.370;2023-06-14T04:46:06;613.60;;;585.83;;
20486;SDS011;10402;49.012;8.370;2023-06-14T04:48:35;607.63;;;580.07;;
20486;SDS011;10402;49.012;8.370;2023-06-14T04:51:02;606.47;;;579.27;;
20486;SDS011;10402;49.012;8.370;2023-06-14T04:53:29;618.83;;;590.83;;
20486;SDS011;10402;49.012;8.370;2023-06-14T04:55:54;623.33;;;595.13;;
20486;SDS011;10402;49.012;8.370;2023-06-14T04:58:20;628.63;;;600.40;;
20486;SDS011;10402;49.012;8.370;2023-06-14T05:00:45;598.73;;;572.00;;
20486;SDS011;10402;49.012;8.370;2023-06-14T05:03:11;639.07;;;610.33;;
20486;SDS011;10402;49.012;8.370;2023-06-14T05:05:38;645.23;;;616.07;;
20486;SDS011;10402;49.012;8.370;2023-06-14T05:08:05;615.20;;;587.60;;
20486;SDS011;10402;49.012;8.370;2023-06-14T05:10:31;611.17;;;583.23;;
20486;SDS011;10402;49.012;8.370;2023-06-14T05:12:56;620.23;;;591.93;;
20486;SDS011;10402;49.012;8.370;2023-06-14T05:15:22;615.87;;;587.40;;
20486;SDS011;10402;49.012;8.370;2023-06-14T05:17:50;615.13;;;586.97;;
20486;SDS011;10402;49.012;8.370;2023-06-14T05:20:20;623.53;;;594.90;;
20486;SDS011;10402;49.012;8.370;2023-06-14T05:22:47;624.27;;;595.53;;
20486;SDS011;10402;49.012;8.370;2023-06-14T05:25:15;648.97;;;618.83;;
20486;SDS011;10402;49.012;8.370;2023-06-14T05:27:40;661.03;;;629.90;;
20486;SDS011;10402;49.012;8.370;2023-06-14T05:30:07;643.83;;;613.97;;
20486;SDS011;10402;49.012;8.370;2023-06-14T05:32:33;651.83;;;621.67;;
20486;SDS011;10402;49.012;8.370;2023-06-14T05:34:59;647.67;;;617.43;;
20486;SDS011;10402;49.012;8.370;2023-06-14T05:37:24;665.70;;;634.17;;
20486;SDS011;10402;49.012;8.370;2023-06-14T05:39:50;657.67;;;626.67;;
20486;SDS011;10402;49.012;8.370;2023-06-14T05:42:15;652.63;;;621.97;;
20486;SDS011;10402;49.012;8.370;2023-06-14T05:44:41;642.60;;;612.37;;
20486;SDS011;10402;49.012;8.370;2023-06-14T05:47:06;646.27;;;616.10;;
20486;SDS011;10402;49.012;8.370;2023-06-14T05:49:32;682.47;;;650.00;;
20486;SDS011;10402;49.012;8.370;2023-06-14T05:51:58;693.27;;;660.27;;
20486;SDS011;10402;49.012;8.370;2023-06-14T05:54:23;700.87;;;667.03;;
20486;SDS011;10402;49.012;8.370;2023-06-14T05:56:49;698.50;;;665.03;;
20486;SDS011;10402;49.012;8.370;2023-06-14T05:59:14;706.63;;;672.43;;
20486;SDS011;10402;49.012;8.370;2023-06-14T06:01:40;713.47;;;679.10;;
20486;SDS011;10402;49.012;8.370;2023-06-14T06:04:05;717.63;;;682.80;;
20486;SDS011;10402;49.012;8.370;2023-06-14T06:06:31;705.50;;;671.50;;
20486;SDS011;10402;49.012;8.370;2023-06-14T06:08:57;713.90;;;679.50;;
20486;SDS011;10402;49.012;8.370;2023-06-14T06:11:23;709.00;;;674.47;;
20486;SDS011;10402;49.012;8.370;2023-06-14T06:13:48;721.27;;;685.97;;
20486;SDS011;10402;49.012;8.370;2023-06-14T06:16:14;704.07;;;670.07;;
20486;SDS011;10402;49.012;8.370;2023-06-14T06:18:40;722.47;;;687.33;;
20486;SDS011;10402;49.012;8.370;2023-06-14T06:21:05;731.33;;;695.70;;
20486;SDS011;10402;49.012;8.370;2023-06-14T06:23:31;722.80;;;687.73;;
20486;SDS011;10402;49.012;8.370;2023-06-14T06:25:57;716.03;;;681.33;;
20486;SDS011;10402;49.012;8.370;2023-06-14T06:28:22;717.40;;;682.50;;
20486;SDS011;10402;49.012;8.370;2023-06-14T06:30:48;705.87;;;671.60;;
20486;SDS011;10402;49.012;8.370;2023-06-14T06:33:13;744.47;;;707.80;;
20486;SDS011;10402;49.012;8.370;2023-06-14T06:35:39;732.33;;;696.77;;
20486;SDS011;10402;49.012;8.370;2023-06-14T06:38:05;727.90;;;692.67;;
20486;SDS011;10402;49.012;8.370;2023-06-14T06:40:30;743.97;;;707.07;;
20486;SDS011;10402;49.012;8.370;2023-06-14T06:42:56;724.83;;;689.27;;
20486;SDS011;10402;49.012;8.370;2023-06-14T06:45:21;722.10;;;686.77;;
20486;SDS011;10402;49.012;8.370;2023-06-14T06:47:48;733.47;;;698.20;;
20486;SDS011;10402;49.012;8.370;2023-06-14T06:50:15;739.00;;;702.47;;
20486;SDS011;10402;49.012;8.370;2023-06-14T06:52:40;735.57;;;699.50;;
20486;SDS011;10402;49.012;8.370;2023-06-14T06:55:06;733.50;;;697.73;;
20486;SDS011;10402;49.012;8.370;2023-06-14T06:57:33;747.83;;;711.17;;
20486;SDS011;10402;49.012;8.370;2023-06-14T06:59:59;750.10;;;712.77;;
20486;SDS011;10402;49.012;8.370;2023-06-14T07:02:24;730.00;;;694.40;;
20486;SDS011;10402;49.012;8.370;2023-06-14T07:04:50;737.63;;;700.77;;
20486;SDS011;10402;49.012;8.370;2023-06-14T07:07:15;758.13;;;720.23;;
20486;SDS011;10402;49.012;8.370;2023-06-14T07:09:42;749.87;;;712.63;;
20486;SDS011;10402;49.012;8.370;2023-06-14T07:12:08;753.93;;;716.03;;
20486;SDS011;10402;49.012;8.370;2023-06-14T07:14:33;747.30;;;709.27;;
20486;SDS011;10402;49.012;8.370;2023-06-14T07:16:59;760.87;;;721.73;;
20486;SDS011;10402;49.012;8.370;2023-06-14T07:19:25;743.53;;;705.53;;
20486;SDS011;10402;49.012;8.370;2023-06-14T07:21:50;748.93;;;710.47;;
20486;SDS011;10402;49.012;8.370;2023-06-14T07:24:16;736.57;;;699.20;;
20486;SDS011;10402;49.012;8.370;2023-06-14T07:26:41;723.00;;;686.83;;
20486;SDS011;10402;49.012;8.370;2023-06-14T07:29:07;743.77;;;706.13;;
20486;SDS011;10402;49.012;8.370;2023-06-14T07:31:32;745.27;;;707.87;;
20486;SDS011;10402;49.012;8.370;2023-06-14T07:33:58;733.03;;;696.83;;
20486;SDS011;10402;49.012;8.370;2023-06-14T07:36:23;724.43;;;688.83;;
20486;SDS011;10402;49.012;8.370;2023-06-14T07:38:49;725.97;;;690.90;;
20486;SDS011;10402;49.012;8.370;2023-06-14T07:41:15;742.37;;;705.33;;
20486;SDS011;10402;49.012;8.370;2023-06-14T07:43:41;728.77;;;693.30;;
20486;SDS011;10402;49.012;8.370;2023-06-14T07:46:06;732.80;;;696.53;;
20486;SDS011;10402;49.012;8.370;2023-06-14T07:48:33;729.13;;;693.50;;
20486;SDS011;10402;49.012;8.370;2023-06-14T07:50:59;731.53;;;695.43;;
20486;SDS011;10402;49.012;8.370;2023-06-14T07:53:26;730.87;;;694.37;;
20486;SDS011;10402;49.012;8.370;2023-06-14T07:55:51;733.70;;;696.87;;
20486;SDS011;10402;49.012;8.370;2023-06-14T07:58:17;744.67;;;707.07;;
20486;SDS011;10402;49.012;8.370;2023-06-14T08:00:42;741.87;;;704.70;;
20486;SDS011;10402;49.012;8.370;2023-06-14T08:03:08;741.37;;;703.97;;
20486;SDS011;10402;49.012;8.370;2023-06-14T08:05:33;740.50;;;703.07;;
20486;SDS011;10402;49.012;8.370;2023-06-14T08:08:00;757.27;;;719.00;;
20486;SDS011;10402;49.012;8.370;2023-06-14T08:10:25;775.33;;;735.17;;
20486;SDS011;10402;49.012;8.370;2023-06-14T08:12:51;766.03;;;727.00;;
20486;SDS011;10402;49.012;8.370;2023-06-14T08:15:17;766.53;;;727.60;;
20486;SDS011;10402;49.012;8.370;2023-06-14T08:17:43;759.77;;;722.07;;
20486;SDS011;10402;49.012;8.370;2023-06-14T08:20:09;752.50;;;714.57;;
20486;SDS011;10402;49.012;8.370;2023-06-14T08:22:35;761.20;;;723.17;;
20486;SDS011;10402;49.012;8.370;2023-06-14T08:25:02;768.03;;;728.80;;
20486;SDS011;10402;49.012;8.370;2023-06-14T08:27:29;773.17;;;733.77;;
20486;SDS011;10402;49.012;8.370;2023-06-14T08:29:54;761.40;;;722.80;;
20486;SDS011;10402;49.012;8.370;2023-06-14T08:32:21;783.83;;;742.93;;
20486;SDS011;10402;49.012;8.370;2023-06-14T08:34:46;776.63;;;735.70;;
20486;SDS011;10402;49.012;8.370;2023-06-14T08:37:12;791.70;;;750.37;;
20486;SDS011;10402;49.012;8.370;2023-06-14T08:39:38;779.47;;;738.57;;
20486;SDS011;10402;49.012;8.370;2023-06-14T08:42:04;782.23;;;740.83;;
20486;SDS011;10402;49.012;8.370;2023-06-14T08:44:32;790.17;;;748.60;;
20486;SDS011;10402;49.012;8.370;2023-06-14T08:46:59;798.87;;;756.67;;
20486;SDS011;10402;49.012;8.370;2023-06-14T08:49:25;787.43;;;745.87;;
20486;SDS011;10402;49.012;8.370;2023-06-14T08:51:57;816.80;;;772.03;;
20486;SDS011;10402;49.012;8.370;2023-06-14T08:54:28;801.13;;;757.80;;
20486;SDS011;10402;49.012;8.370;2023-06-14T08:56:59;815.73;;;771.27;;
20486;SDS011;10402;49.012;8.370;2023-06-14T08:59:28;796.50;;;753.67;;
20486;SDS011;10402;49.012;8.370;2023-06-14T09:01:56;823.97;;;779.03;;
20486;SDS011;10402;49.012;8.370;2023-06-14T09:04:22;824.07;;;778.67;;
20486;SDS011;10402;49.012;8.370;2023-06-14T09:06:49;819.47;;;773.60;;
20486;SDS011;10402;49.012;8.370;2023-06-14T09:09:19;835.47;;;789.03;;
20486;SDS011;10402;49.012;8.370;2023-06-14T09:11:49;848.43;;;800.67;;
20486;SDS011;10402;49.012;8.370;2023-06-14T09:14:15;846.07;;;798.30;;
20486;SDS011;10402;49.012;8.370;2023-06-14T09:16:41;850.07;;;801.73;;
20486;SDS011;10402;49.012;8.370;2023-06-14T09:19:07;855.17;;;806.23;;
20486;SDS011;10402;49.012;8.370;2023-06-14T09:21:34;852.57;;;803.57;;
20486;SDS011;10402;49.012;8.370;2023-06-14T09:24:02;847.90;;;799.60;;
20486;SDS011;10402;49.012;8.370;2023-06-14T09:26:29;857.30;;;807.87;;
20486;SDS011;10402;49.012;8.370;2023-06-14T09:28:55;843.70;;;795.03;;
20486;SDS011;10402;49.012;8.370;2023-06-14T09:31:20;865.70;;;815.73;;
20486;SDS011;10402;49.012;8.370;2023-06-14T09:33:47;852.67;;;803.60;;
20486;SDS011;10402;49.012;8.370;2023-06-14T09:36:18;863.40;;;813.40;;
20486;SDS011;10402;49.012;8.370;2023-06-14T09:39:00;853.03;;;804.13;;
20486;SDS011;10402;49.012;8.370;2023-06-14T09:41:31;870.03;;;819.73;;
20486;SDS011;10402;49.012;8.370;2023-06-14T09:43:59;868.23;;;818.17;;
20486;SDS011;10402;49.012;8.370;2023-06-14T09:46:28;873.30;;;822.97;;
20486;SDS011;10402;49.012;8.370;2023-06-14T09:48:57;872.30;;;823.13;;
20486;SDS011;10402;49.012;8.370;2023-06-14T09:51:23;873.77;;;824.67;;
20486;SDS011;10402;49.012;8.370;2023-06-14T09:53:50;891.00;;;840.30;;
20486;SDS011;10402;49.012;8.370;2023-06-14T09:56:23;891.70;;;841.33;;
20486;SDS011;10402;49.012;8.370;2023-06-14T09:58:55;874.60;;;825.47;;
20486;SDS011;10402;49.012;8.370;2023-06-14T10:01:25;863.73;;;815.23;;
20486;SDS011;10402;49.012;8.370;2023-06-14T10:03:55;880.70;;;831.00;;
20486;SDS011;10402;49.012;8.370;2023-06-14T10:06:27;869.13;;;820.30;;
20486;SDS011;10402;49.012;8.370;2023-06-14T10:08:55;868.20;;;819.77;;
20486;SDS011;10402;49.012;8.370;2023-06-14T10:11:22;881.00;;;831.47;;
20486;SDS011;10402;49.012;8.370;2023-06-14T10:13:48;868.33;;;819.37;;
20486;SDS011;10402;49.012;8.370;2023-06-14T10:16:16;852.63;;;805.47;;
20486;SDS011;10402;49.012;8.370;2023-06-14T10:19:04;856.07;;;809.00;;
20486;SDS011;10402;49.012;8.370;2023-06-14T10:21:51;834.23;;;788.53;;
20486;SDS011;10402;49.012;8.370;2023-06-14T10:24:26;842.50;;;795.73;;
20486;SDS011;10402;49.012;8.370;2023-06-14T10:26:58;833.63;;;788.23;;
20486;SDS011;10402;49.012;8.370;2023-06-14T10:29:27;818.43;;;774.17;;
20486;SDS011;10402;49.012;8.370;2023-06-14T10:31:57;812.60;;;768.57;;
20486;SDS011;10402;49.012;8.370;2023-06-14T10:34:27;850.67;;;803.97;;
20486;SDS011;10402;49.012;8.370;2023-06-14T10:37:00;842.23;;;796.57;;
20486;SDS011;10402;49.012;8.370;2023-06-14T10:39:28;833.87;;;788.63;;
20486;SDS011;10402;49.012;8.370;2023-06-14T10:41:55;825.07;;;779.80;;
20486;SDS011;10402;49.012;8.370;2023-06-14T10:46:53;840.97;;;794.83;;
20486;SDS011;10402;49.012;8.370;2023-06-14T10:49:20;854.40;;;807.10;;
20486;SDS011;10402;49.012;8.370;2023-06-14T10:52:02;843.20;;;796.67;;
20486;SDS011;10402;49.012;8.370;2023-06-14T10:54:28;844.10;;;797.37;;
20486;SDS011;10402;49.012;8.370;2023-06-14T10:56:53;853.57;;;805.57;;
20486;SDS011;10402;49.012;8.370;2023-06-14T10:59:20;850.03;;;802.13;;
20486;SDS011;10402;49.012;8.370;2023-06-14T11:04:34;872.60;;;823.23;;
20486;SDS011;10402;49.012;8.370;2023-06-14T11:13:08;841.83;;;794.77;;
20486;SDS011;10402;49.012;8.370;2023-06-14T11:15:34;865.43;;;816.30;;
20486;SDS011;10402;49.012;8.370;2023-06-14T11:18:02;851.43;;;803.50;;
20486;SDS011;10402;49.012;8.370;2023-06-14T11:20:30;845.97;;;798.43;;
20486;SDS011;10402;49.012;8.370;2023-06-14T11:22:57;837.90;;;791.03;;
20486;SDS011;10402;49.012;8.370;2023-06-14T11:25:22;842.57;;;794.93;;
20486;SDS011;10402;49.012;8.370;2023-06-14T11:27:51;851.27;;;803.37;;
20486;SDS011;10402;49.012;8.370;2023-06-14T11:30:17;854.60;;;806.43;;
20486;SDS011;10402;49.012;8.370;2023-06-14T11:32:45;845.37;;;797.60;;
20486;SDS011;10402;49.012;8.370;2023-06-14T11:35:15;841.77;;;794.03;;
20486;SDS011;10402;49.012;8.370;2023-06-14T11:37:42;860.83;;;811.63;;
20486;SDS011;10402;49.012;8.370;2023-06-14T11:40:09;851.37;;;803.27;;
20486;SDS011;10402;49.012;8.370;2023-06-14T11:42:37;854.10;;;805.80;;
20486;SDS011;10402;49.012;8.370;2023-06-14T11:45:03;852.00;;;804.40;;
20486;SDS011;10402;49.012;8.370;2023-06-14T11:47:32;831.53;;;785.17;;
20486;SDS011;10402;49.012;8.370;2023-06-14T11:49:59;849.97;;;802.10;;
20486;SDS011;10402;49.012;8.370;2023-06-14T11:52:25;850.50;;;802.80;;
20486;SDS011;10402;49.012;8.370;2023-06-14T11:54:50;847.53;;;799.40;;
20486;SDS011;10402;49.012;8.370;2023-06-14T11:57:20;844.63;;;796.90;;
20486;SDS011;10402;49.012;8.370;2023-06-14T11:59:45;850.53;;;802.30;;
20486;SDS011;10402;49.012;8.370;2023-06-14T12:02:15;866.00;;;817.03;;
20486;SDS011;10402;49.012;8.370;2023-06-14T12:04:41;869.07;;;819.90;;
20486;SDS011;10402;49.012;8.370;2023-06-14T12:07:08;853.47;;;805.27;;
20486;SDS011;10402;49.012;8.370;2023-06-14T12:09:39;861.30;;;812.80;;
20486;SDS011;10402;49.012;8.370;2023-06-14T12:12:26;860.00;;;811.60;;
20486;SDS011;10402;49.012;8.370;2023-06-14T12:14:52;844.17;;;796.40;;
20486;SDS011;10402;49.012;8.370;2023-06-14T12:17:19;865.43;;;816.23;;
20486;SDS011;10402;49.012;8.370;2023-06-14T12:19:45;866.23;;;817.07;;
20486;SDS011;10402;49.012;8.370;2023-06-14T12:22:14;866.83;;;817.77;;
20486;SDS011;10402;49.012;8.370;2023-06-14T12:24:43;865.13;;;816.67;;
20486;SDS011;10402;49.012;8.370;2023-06-14T12:27:10;855.40;;;807.50;;
20486;SDS011;10402;49.012;8.370;2023-06-14T12:29:40;873.83;;;824.77;;
20486;SDS011;10402;49.012;8.370;2023-06-14T12:32:08;860.07;;;811.67;;
20486;SDS011;10402;49.012;8.370;2023-06-14T12:34:34;858.23;;;810.47;;
20486;SDS011;10402;49.012;8.370;2023-06-14T12:37:00;850.87;;;803.67;;
20486;SDS011;10402;49.012;8.370;2023-06-14T12:39:26;863.23;;;814.03;;
20486;SDS011;10402;49.012;8.370;2023-06-14T12:41:52;870.03;;;819.90;;
20486;SDS011;10402;49.012;8.370;2023-06-14T12:44:19;878.97;;;828.27;;
20486;SDS011;10402;49.012;8.370;2023-06-14T12:46:44;858.80;;;809.93;;
20486;SDS011;10402;49.012;8.370;2023-06-14T12:49:11;854.03;;;805.30;;
20486;SDS011;10402;49.012;8.370;2023-06-14T12:51:37;866.73;;;816.80;;
20486;SDS011;10402;49.012;8.370;2023-06-14T12:54:06;864.50;;;814.30;;
20486;SDS011;10402;49.012;8.370;2023-06-14T12:56:31;850.87;;;801.73;;
20486;SDS011;10402;49.012;8.370;2023-06-14T12:58:57;851.87;;;802.93;;
20486;SDS011;10402;49.012;8.370;2023-06-14T13:01:23;849.17;;;799.93;;
20486;SDS011;10402;49.012;8.370;2023-06-14T13:03:49;858.20;;;808.53;;
20486;SDS011;10402;49.012;8.370;2023-06-14T13:06:20;864.30;;;814.67;;
20486;SDS011;10402;49.012;8.370;2023-06-14T13:08:49;866.57;;;816.30;;
20486;SDS011;10402;49.012;8.370;2023-06-14T13:11:15;886.00;;;833.77;;
20486;SDS011;10402;49.012;8.370;2023-06-14T13:13:41;858.63;;;808.87;;
20486;SDS011;10402;49.012;8.370;2023-06-14T13:16:06;867.17;;;816.80;;
20486;SDS011;10402;49.012;8.370;2023-06-14T13:18:32;878.10;;;826.57;;
20486;SDS011;10402;49.012;8.370;2023-06-14T13:20:58;874.63;;;823.93;;
20486;SDS011;10402;49.012;8.370;2023-06-14T13:23:23;878.13;;;826.67;;
20486;SDS011;10402;49.012;8.370;2023-06-14T13:25:49;859.80;;;809.73;;
20486;SDS011;10402;49.012;8.370;2023-06-14T13:28:16;880.13;;;828.10;;
20486;SDS011;10402;49.012;8.370;2023-06-14T13:30:41;876.57;;;825.03;;
20486;SDS011;10402;49.012;8.370;2023-06-14T13:33:07;866.60;;;815.97;;
20486;SDS011;10402;49.012;8.370;2023-06-14T13:35:32;866.27;;;815.93;;
20486;SDS011;10402;49.012;8.370;2023-06-14T13:37:58;886.87;;;834.67;;
20486;SDS011;10402;49.012;8.370;2023-06-14T13:40:24;878.40;;;826.90;;
20486;SDS011;10402;49.012;8.370;2023-06-14T13:42:49;875.97;;;824.63;;
20486;SDS011;10402;49.012;8.370;2023-06-14T13:45:15;880.43;;;829.30;;
20486;SDS011;10402;49.012;8.370;2023-06-14T13:47:41;874.20;;;822.63;;
20486;SDS011;10402;49.012;8.370;2023-06-14T13:50:06;861.50;;;810.83;;
20486;SDS011;10402;49.012;8.370;2023-06-14T13:52:32;878.70;;;826.97;;
20486;SDS011;10402;49.012;8.370;2023-06-14T13:54:58;874.83;;;823.07;;
20486;SDS011;10402;49.012;8.370;2023-06-14T13:57:25;867.27;;;816.80;;
20486;SDS011;10402;49.012;8.370;2023-06-14T13:59:50;876.23;;;824.87;;
20486;SDS011;10402;49.012;8.370;2023-06-14T14:02:18;878.63;;;827.30;;
20486;SDS011;10402;49.012;8.370;2023-06-14T14:04:44;892.23;;;840.00;;
20486;SDS011;10402;49.012;8.370;2023-06-14T14:07:16;882.40;;;831.07;;
20486;SDS011;10402;49.012;8.370;2023-06-14T14:09:41;880.03;;;828.30;;